createdAt,value
2023-01-18T00:01:40.045Z,85.71
2023-01-18T00:06:41.628Z,84.72
2023-01-18T00:11:42.958Z,85.07
2023-01-18T00:16:44.313Z,85.67
2023-01-18T00:21:45.645Z,85.33
2023-01-18T00:26:46.992Z,85.37
2023-01-18T00:31:48.709Z,86.36
2023-01-18T00:36:50.124Z,85.56
2023-01-18T00:42:10.096Z,85.68
2023-01-18T00:47:11.481Z,86.42
2023-01-18T00:52:12.904Z,86.30
2023-01-18T00:57:14.254Z,85.83
2023-01-18T01:02:15.746Z,86.52
2023-01-18T01:07:17.179Z,86.60
2023-01-18T01:12:37.338Z,86.01
2023-01-18T01:17:57.467Z,86.23
2023-01-18T01:23:26.334Z,86.86
2023-01-18T01:28:27.915Z,86.09
2023-01-18T01:33:30.046Z,86.82
2023-01-18T01:38:31.601Z,86.50
2023-01-18T01:43:50.336Z,86.96
2023-01-18T01:48:57.866Z,86.43
2023-01-18T01:54:02.489Z,86.86
2023-01-18T01:59:04.608Z,87.10
2023-01-18T02:04:05.978Z,86.18
2023-01-18T02:09:10.065Z,86.64
2023-01-18T02:14:13.942Z,87.18
2023-01-18T02:19:15.299Z,87.33
2023-01-18T02:24:23.215Z,87.57
2023-01-18T02:29:43.370Z,87.33
2023-01-18T02:34:49.311Z,87.28
2023-01-18T02:40:07.320Z,87.37
2023-01-18T02:45:35.798Z,86.81
2023-01-18T02:50:37.341Z,86.99
2023-01-18T02:55:41.794Z,86.98
2023-01-18T03:00:46.917Z,86.82
2023-01-18T03:05:49.515Z,86.99
2023-01-18T03:10:59.821Z,86.67
2023-01-18T03:16:07.491Z,87.18
2023-01-18T03:21:08.870Z,87.00
2023-01-18T03:26:11.386Z,86.72
2023-01-18T03:31:34.050Z,86.65
2023-01-18T03:36:38.603Z,86.47
2023-01-18T03:41:43.509Z,86.28
2023-01-18T03:46:45.450Z,86.72
2023-01-18T03:52:01.864Z,86.72
2023-01-18T03:57:15.481Z,86.80
2023-01-18T04:02:17.610Z,86.88
2023-01-18T04:07:19.058Z,86.93
2023-01-18T04:12:20.450Z,86.95
2023-01-18T04:17:21.800Z,86.89
2023-01-18T04:22:23.163Z,86.59
2023-01-18T04:27:27.524Z,86.79
2023-01-18T04:32:28.987Z,86.57
2023-01-18T04:37:31.047Z,86.65
2023-01-18T04:42:32.643Z,86.55
2023-01-18T04:47:34.155Z,86.33
2023-01-18T04:52:35.526Z,86.54
2023-01-18T04:57:36.857Z,86.72
2023-01-18T05:02:38.409Z,86.51
2023-01-18T05:07:39.753Z,86.25
2023-01-18T05:12:41.111Z,86.75
2023-01-18T05:17:42.466Z,86.60
2023-01-18T05:22:43.849Z,86.75
2023-01-18T05:27:45.400Z,86.03
2023-01-18T05:32:46.845Z,86.50
2023-01-18T05:37:49.021Z,86.82
2023-01-18T05:42:50.449Z,86.73
2023-01-18T05:47:53.817Z,86.75
2023-01-18T05:52:57.366Z,86.07
2023-01-18T05:57:58.886Z,86.61
2023-01-18T06:03:00.967Z,86.89
2023-01-18T06:08:02.605Z,86.41
2023-01-18T06:13:04.059Z,86.06
2023-01-18T06:18:08.126Z,85.64
2023-01-18T06:23:09.489Z,86.21
2023-01-18T06:28:10.869Z,86.46
2023-01-18T06:33:12.234Z,86.84
2023-01-18T06:38:13.985Z,86.89
2023-01-18T06:43:15.882Z,87.02
2023-01-18T06:48:17.214Z,86.81
2023-01-18T06:53:20.083Z,87.42
2023-01-18T06:58:21.454Z,87.51
2023-01-18T07:03:23.292Z,87.17
2023-01-18T07:08:25.075Z,87.04
2023-01-18T07:13:26.930Z,86.71
2023-01-18T07:18:29.606Z,86.47
2023-01-18T07:23:31.001Z,87.13
2023-01-18T07:28:32.896Z,86.95
2023-01-18T07:33:34.868Z,87.04
2023-01-18T07:38:36.783Z,87.23
2023-01-18T07:43:38.182Z,87.34
2023-01-18T07:48:39.590Z,87.08
2023-01-18T07:53:41.216Z,87.47
2023-01-18T07:58:42.606Z,87.89
2023-01-18T08:03:44.902Z,88.06
2023-01-18T08:08:46.242Z,88.36
2023-01-18T08:13:49.138Z,88.39
2023-01-18T08:18:50.611Z,88.17
2023-01-18T08:23:55.062Z,88.65
2023-01-18T08:28:57.346Z,88.43
2023-01-18T08:33:58.695Z,88.76
2023-01-18T08:39:00.056Z,89.16
2023-01-18T08:44:01.444Z,88.81
2023-01-18T08:49:05.612Z,88.63
2023-01-18T08:54:07.152Z,89.00
2023-01-18T08:59:09.075Z,89.23
2023-01-18T09:04:10.478Z,89.27
2023-01-18T09:09:12.640Z,89.66
2023-01-18T09:14:15.257Z,89.56
2023-01-18T09:19:16.600Z,89.25
2023-01-18T09:24:18.009Z,88.70
2023-01-18T09:29:19.861Z,88.40
2023-01-18T09:34:21.684Z,89.04
2023-01-18T09:39:23.080Z,89.54
2023-01-18T09:44:28.654Z,90.02
2023-01-18T09:49:38.007Z,90.04
2023-01-18T09:54:43.917Z,90.32
2023-01-18T09:59:55.993Z,89.30
2023-01-18T10:05:04.168Z,90.24
2023-01-18T10:10:05.983Z,89.40
2023-01-18T10:15:31.723Z,89.59
2023-01-18T10:20:40.478Z,89.76
2023-01-18T10:25:47.358Z,89.75
2023-01-18T10:31:01.651Z,89.32
2023-01-18T10:36:06.593Z,90.30
2023-01-18T10:41:15.262Z,89.56
2023-01-18T10:46:19.707Z,89.60
2023-01-18T10:51:31.845Z,90.08
2023-01-18T10:56:33.398Z,88.87
2023-01-18T11:01:36.130Z,89.40
2023-01-18T11:06:48.776Z,89.09
2023-01-18T11:12:08.867Z,89.34
2023-01-18T11:17:11.430Z,89.40
2023-01-18T11:22:15.939Z,89.33
2023-01-18T11:27:21.428Z,88.51
2023-01-18T11:32:27.363Z,88.59
2023-01-18T11:37:28.694Z,89.27
2023-01-18T11:42:34.995Z,88.62
2023-01-18T11:47:47.758Z,89.32
2023-01-18T11:52:54.474Z,89.60
2023-01-18T11:57:55.828Z,90.10
2023-01-18T12:03:23.776Z,89.22
2023-01-18T12:08:40.204Z,88.15
2023-01-18T12:13:41.515Z,87.86
2023-01-18T12:18:45.870Z,88.58
2023-01-18T12:23:47.236Z,88.81
2023-01-18T12:29:16.435Z,87.93
2023-01-18T12:34:22.238Z,88.43
2023-01-18T12:39:23.560Z,88.94
2023-01-18T12:44:36.803Z,88.90
2023-01-18T12:49:41.455Z,89.43
2023-01-18T12:54:45.707Z,88.41
2023-01-18T12:59:59.592Z,89.39
2023-01-18T13:05:00.914Z,90.29
2023-01-18T13:10:02.734Z,89.52
2023-01-18T13:15:19.389Z,89.72
2023-01-18T13:20:35.933Z,89.98
2023-01-18T13:26:00.641Z,87.51
2023-01-18T13:31:06.260Z,88.50
2023-01-18T13:36:10.994Z,88.82
2023-01-18T13:41:13.173Z,88.11
2023-01-18T13:46:14.594Z,88.16
2023-01-18T13:51:34.416Z,88.65
2023-01-18T13:56:39.458Z,88.21
2023-01-18T14:01:43.811Z,88.65
2023-01-18T14:06:45.752Z,89.44
2023-01-18T14:12:06.055Z,89.56
2023-01-18T14:17:15.141Z,88.99
2023-01-18T14:22:16.553Z,88.89
2023-01-18T14:27:20.362Z,89.85
2023-01-18T14:32:25.997Z,89.18
2023-01-18T14:37:28.471Z,88.44
2023-01-18T14:42:34.643Z,89.58
2023-01-18T14:47:37.535Z,89.77
2023-01-18T14:52:39.889Z,89.20
2023-01-18T14:57:41.240Z,89.59
2023-01-18T15:02:43.633Z,90.14
2023-01-18T15:07:46.333Z,89.53
2023-01-18T15:12:56.311Z,89.55
2023-01-18T15:18:04.616Z,89.68
2023-01-18T15:23:06.218Z,89.79
2023-01-18T15:28:23.044Z,89.85
2023-01-18T15:33:27.171Z,89.66
2023-01-18T15:38:28.698Z,90.15
2023-01-18T15:43:34.639Z,89.86
2023-01-18T15:48:46.796Z,89.81
2023-01-18T15:53:52.337Z,90.98
2023-01-18T15:58:57.889Z,90.88
2023-01-18T16:04:00.689Z,90.46
2023-01-18T16:09:13.291Z,89.49
2023-01-18T16:14:20.335Z,89.48
2023-01-18T16:19:21.847Z,89.42
2023-01-18T16:24:29.675Z,90.10
2023-01-18T16:29:38.991Z,90.58
2023-01-18T16:34:40.372Z,90.79
2023-01-18T16:39:41.782Z,90.96
2023-01-18T16:44:44.438Z,90.49
2023-01-18T16:49:47.731Z,90.88
2023-01-18T16:54:49.322Z,90.31
2023-01-18T16:59:51.797Z,90.62
2023-01-18T17:04:53.213Z,91.17
2023-01-18T17:09:54.901Z,91.42
2023-01-18T17:14:56.421Z,91.09
2023-01-18T17:19:57.752Z,91.07
2023-01-18T17:24:59.226Z,91.00
2023-01-18T17:30:01.490Z,91.59
2023-01-18T17:35:03.317Z,91.44
2023-01-18T17:40:22.668Z,91.26
2023-01-18T17:45:26.089Z,91.85
2023-01-18T17:50:27.543Z,91.75
2023-01-18T17:55:34.690Z,91.53
2023-01-18T18:00:36.921Z,91.90
2023-01-18T18:05:38.286Z,91.82
2023-01-18T18:10:41.808Z,91.90
2023-01-18T18:15:48.393Z,91.64
2023-01-18T18:20:50.573Z,91.39
2023-01-18T18:25:51.935Z,91.71
2023-01-18T18:30:53.662Z,91.22
2023-01-18T18:35:55.296Z,91.31
2023-01-18T18:41:02.236Z,90.90
2023-01-18T18:46:03.923Z,90.95
2023-01-18T18:51:05.416Z,90.51
2023-01-18T18:56:09.175Z,90.23
2023-01-18T19:01:37.278Z,89.86
2023-01-18T19:06:39.129Z,89.72
2023-01-18T19:11:50.398Z,89.68
2023-01-18T19:16:56.027Z,89.22
2023-01-18T19:21:57.583Z,89.26
2023-01-18T19:26:59.023Z,88.86
2023-01-18T19:32:00.484Z,88.62
2023-01-18T19:37:01.866Z,88.60
2023-01-18T19:42:03.360Z,88.35
2023-01-18T19:47:04.712Z,88.74
2023-01-18T19:52:06.220Z,88.49
2023-01-18T19:57:07.805Z,88.13
2023-01-18T20:02:09.867Z,88.35
2023-01-18T20:07:12.732Z,88.46
2023-01-18T20:12:14.205Z,88.38
2023-01-18T20:17:15.661Z,88.28
2023-01-18T20:22:17.051Z,88.25
2023-01-18T20:27:18.591Z,88.47
2023-01-18T20:32:20.116Z,88.76
2023-01-18T20:37:21.592Z,88.35
2023-01-18T20:42:22.930Z,88.21
2023-01-18T20:47:24.366Z,87.98
2023-01-18T20:52:25.746Z,88.01
2023-01-18T20:57:29.535Z,87.79
2023-01-18T21:02:31.039Z,87.11
2023-01-18T21:07:32.425Z,87.13
2023-01-18T21:12:33.816Z,86.73
2023-01-18T21:17:35.916Z,86.17
2023-01-18T21:22:37.310Z,85.87
2023-01-18T21:27:43.008Z,84.82
2023-01-18T21:32:44.991Z,85.40
2023-01-18T21:37:46.352Z,85.31
2023-01-18T21:43:06.217Z,84.22
2023-01-18T21:48:10.281Z,84.11
2023-01-18T21:53:34.019Z,83.65
2023-01-18T21:58:53.443Z,83.17
2023-01-18T22:04:13.700Z,82.22
2023-01-18T22:09:15.118Z,82.06
2023-01-18T22:14:16.525Z,82.04
2023-01-18T22:19:19.045Z,81.99
2023-01-18T22:24:20.669Z,81.42
2023-01-18T22:29:22.108Z,80.02
2023-01-18T22:34:23.477Z,79.55
2023-01-18T22:39:25.227Z,80.05
2023-01-18T22:44:26.637Z,79.64
2023-01-18T22:49:28.072Z,79.45
2023-01-18T22:54:29.416Z,79.72
2023-01-18T22:59:30.759Z,79.66
2023-01-18T23:04:34.100Z,79.35
2023-01-18T23:09:35.449Z,79.47
2023-01-18T23:14:57.374Z,80.59
2023-01-18T23:19:58.841Z,81.61
2023-01-18T23:25:00.220Z,81.22
2023-01-18T23:30:02.445Z,78.79
2023-01-18T23:35:04.466Z,78.66
2023-01-18T23:40:24.983Z,78.47
2023-01-18T23:45:44.786Z,77.23
2023-01-18T23:51:05.365Z,77.32
2023-01-18T23:56:07.027Z,78.43
